sensor_id;sensor_type;location;lat;lon;timestamp;temperature;humidity
7704;DHT22;3894;49.700;10.770;2023-02-14T00:04:43;1.30;99.90
7704;DHT22;3894;49.700;10.770;2023-02-14T00:07:16;1.30;99.90
7704;DHT22;3894;49.700;10.770;2023-02-14T00:10:01;1.40;99.90
7704;DHT22;3894;49.700;10.770;2023-02-14T00:12:50;1.40;99.90
7704;DHT22;3894;49.700;10.770;2023-02-14T00:15:41;1.40;99.90
7704;DHT22;3894;49.700;10.770;2023-02-14T00:18:19;1.40;99.90
7704;DHT22;3894;49.700;10.770;2023-02-14T00:21:01;1.40;99.90
7704;DHT22;3894;49.700;10.770;2023-02-14T00:26:44;1.40;99.90
7704;DHT22;3894;49.700;10.770;2023-02-14T00:32:37;1.50;99.90
7704;DHT22;3894;49.700;10.770;2023-02-14T00:35:18;1.50;99.90
7704;DHT22;3894;49.700;10.770;2023-02-14T00:38:18;1.50;99.90
7704;DHT22;3894;49.700;10.770;2023-02-14T00:40:49;1.50;99.90
7704;DHT22;3894;49.700;10.770;2023-02-14T00:43:35;1.50;99.90
7704;DHT22;3894;49.700;10.770;2023-02-14T00:46:42;1.50;99.90
7704;DHT22;3894;49.700;10.770;2023-02-14T00:49:19;1.50;99.90
7704;DHT22;3894;49.700;10.770;2023-02-14T00:52:32;1.50;99.90
7704;DHT22;3894;49.700;10.770;2023-02-14T00:58:28;1.50;99.90
7704;DHT22;3894;49.700;10.770;2023-02-14T01:07:54;1.50;99.90
7704;DHT22;3894;49.700;10.770;2023-02-14T01:10:44;1.50;99.90
7704;DHT22;3894;49.700;10.770;2023-02-14T01:13:47;1.60;99.90
7704;DHT22;3894;49.700;10.770;2023-02-14T01:16:23;1.60;99.90
7704;DHT22;3894;49.700;10.770;2023-02-14T01:19:16;1.60;99.90
7704;DHT22;3894;49.700;10.770;2023-02-14T01:28:35;1.60;99.90
7704;DHT22;3894;49.700;10.770;2023-02-14T02:33:32;1.60;99.90
7704;DHT22;3894;49.700;10.770;2023-02-14T02:47:13;1.60;99.90
7704;DHT22;3894;49.700;10.770;2023-02-14T02:50:33;1.50;99.90
7704;DHT22;3894;49.700;10.770;2023-02-14T02:53:20;1.50;99.90
7704;DHT22;3894;49.700;10.770;2023-02-14T02:55:52;1.50;99.90
7704;DHT22;3894;49.700;10.770;2023-02-14T03:01:22;1.50;99.90
7704;DHT22;3894;49.700;10.770;2023-02-14T03:03:53;1.50;99.90
7704;DHT22;3894;49.700;10.770;2023-02-14T03:06:39;1.50;99.90
7704;DHT22;3894;49.700;10.770;2023-02-14T03:11:52;1.60;99.90
7704;DHT22;3894;49.700;10.770;2023-02-14T03:14:32;1.50;99.90
7704;DHT22;3894;49.700;10.770;2023-02-14T03:17:15;1.60;99.90
7704;DHT22;3894;49.700;10.770;2023-02-14T03:23:00;1.60;99.90
7704;DHT22;3894;49.700;10.770;2023-02-14T06:04:13;1.20;99.90
7704;DHT22;3894;49.700;10.770;2023-02-14T06:06:39;1.20;99.90
7704;DHT22;3894;49.700;10.770;2023-02-14T06:09:04;1.20;99.90
7704;DHT22;3894;49.700;10.770;2023-02-14T06:11:30;1.20;99.90
7704;DHT22;3894;49.700;10.770;2023-02-14T06:13:56;1.20;99.90
7704;DHT22;3894;49.700;10.770;2023-02-14T06:16:22;1.20;99.90
7704;DHT22;3894;49.700;10.770;2023-02-14T06:18:47;1.20;99.90
7704;DHT22;3894;49.700;10.770;2023-02-14T06:21:13;1.20;99.90
7704;DHT22;3894;49.700;10.770;2023-02-14T06:23:39;1.20;99.90
7704;DHT22;3894;49.700;10.770;2023-02-14T06:26:04;1.10;99.90
7704;DHT22;3894;49.700;10.770;2023-02-14T06:28:30;1.10;99.90
7704;DHT22;3894;49.700;10.770;2023-02-14T06:30:56;1.10;99.90
7704;DHT22;3894;49.700;10.770;2023-02-14T06:33:21;1.10;99.90
7704;DHT22;3894;49.700;10.770;2023-02-14T06:35:47;1.10;99.90
7704;DHT22;3894;49.700;10.770;2023-02-14T06:38:13;1.10;99.90
7704;DHT22;3894;49.700;10.770;2023-02-14T06:40:38;1.10;99.90
7704;DHT22;3894;49.700;10.770;2023-02-14T06:43:04;1.10;99.90
7704;DHT22;3894;49.700;10.770;2023-02-14T06:45:40;1.10;99.90
7704;DHT22;3894;49.700;10.770;2023-02-14T06:48:08;1.10;99.90
7704;DHT22;3894;49.700;10.770;2023-02-14T06:50:38;1.10;99.90
7704;DHT22;3894;49.700;10.770;2023-02-14T06:53:05;1.10;99.90
7704;DHT22;3894;49.700;10.770;2023-02-14T06:55:30;1.10;99.90
7704;DHT22;3894;49.700;10.770;2023-02-14T06:57:56;1.10;99.90
7704;DHT22;3894;49.700;10.770;2023-02-14T07:00:22;1.10;99.90
7704;DHT22;3894;49.700;10.770;2023-02-14T07:02:47;1.00;99.90
7704;DHT22;3894;49.700;10.770;2023-02-14T07:05:13;1.00;99.90
7704;DHT22;3894;49.700;10.770;2023-02-14T07:07:44;1.00;99.90
7704;DHT22;3894;49.700;10.770;2023-02-14T07:10:19;1.00;99.90
7704;DHT22;3894;49.700;10.770;2023-02-14T07:12:50;1.00;99.90
7704;DHT22;3894;49.700;10.770;2023-02-14T07:15:20;1.00;99.90
7704;DHT22;3894;49.700;10.770;2023-02-14T07:17:49;0.90;99.90
7704;DHT22;3894;49.700;10.770;2023-02-14T07:20:15;1.00;99.90
7704;DHT22;3894;49.700;10.770;2023-02-14T07:22:40;1.00;99.90
7704;DHT22;3894;49.700;10.770;2023-02-14T07:25:12;1.00;99.90
7704;DHT22;3894;49.700;10.770;2023-02-14T07:27:41;1.00;99.90
7704;DHT22;3894;49.700;10.770;2023-02-14T07:30:08;1.00;99.90
7704;DHT22;3894;49.700;10.770;2023-02-14T07:32:36;1.00;99.90
7704;DHT22;3894;49.700;10.770;2023-02-14T07:35:01;1.00;99.90
7704;DHT22;3894;49.700;10.770;2023-02-14T07:37:27;1.00;99.90
7704;DHT22;3894;49.700;10.770;2023-02-14T07:39:53;1.00;99.90
7704;DHT22;3894;49.700;10.770;2023-02-14T07:42:19;1.00;99.90
7704;DHT22;3894;49.700;10.770;2023-02-14T07:44:44;1.00;99.90
7704;DHT22;3894;49.700;10.770;2023-02-14T07:47:11;1.10;99.90
7704;DHT22;3894;49.700;10.770;2023-02-14T07:49:36;1.00;99.90
7704;DHT22;3894;49.700;10.770;2023-02-14T07:52:03;1.10;99.90
7704;DHT22;3894;49.700;10.770;2023-02-14T07:54:29;1.10;99.90
7704;DHT22;3894;49.700;10.770;2023-02-14T07:56:59;1.10;99.90
7704;DHT22;3894;49.700;10.770;2023-02-14T07:59:24;1.10;99.90
7704;DHT22;3894;49.700;10.770;2023-02-14T08:01:50;1.10;99.90
7704;DHT22;3894;49.700;10.770;2023-02-14T08:04:19;1.10;99.90
7704;DHT22;3894;49.700;10.770;2023-02-14T08:06:45;1.10;99.90
7704;DHT22;3894;49.700;10.770;2023-02-14T08:09:11;1.10;99.90
7704;DHT22;3894;49.700;10.770;2023-02-14T08:11:49;1.10;99.90
7704;DHT22;3894;49.700;10.770;2023-02-14T08:14:34;1.10;99.90
7704;DHT22;3894;49.700;10.770;2023-02-14T08:17:00;1.20;99.90
7704;DHT22;3894;49.700;10.770;2023-02-14T08:19:29;1.20;99.90
7704;DHT22;3894;49.700;10.770;2023-02-14T08:21:55;1.20;99.90
7704;DHT22;3894;49.700;10.770;2023-02-14T08:24:21;1.20;99.90
7704;DHT22;3894;49.700;10.770;2023-02-14T08:26:46;1.20;99.90
7704;DHT22;3894;49.700;10.770;2023-02-14T08:29:12;1.20;99.90
7704;DHT22;3894;49.700;10.770;2023-02-14T08:31:38;1.20;99.90
7704;DHT22;3894;49.700;10.770;2023-02-14T08:34:04;1.20;99.90
7704;DHT22;3894;49.700;10.770;2023-02-14T08:36:29;1.30;99.90
7704;DHT22;3894;49.700;10.770;2023-02-14T08:38:55;1.30;99.90
7704;DHT22;3894;49.700;10.770;2023-02-14T08:41:22;1.30;99.90
7704;DHT22;3894;49.700;10.770;2023-02-14T08:43:48;1.30;99.90
7704;DHT22;3894;49.700;10.770;2023-02-14T08:46:14;1.30;99.90
7704;DHT22;3894;49.700;10.770;2023-02-14T08:48:44;1.30;99.90
7704;DHT22;3894;49.700;10.770;2023-02-14T08:51:12;1.30;99.90
7704;DHT22;3894;49.700;10.770;2023-02-14T08:53:39;1.30;99.90
7704;DHT22;3894;49.700;10.770;2023-02-14T08:56:13;1.30;99.90
7704;DHT22;3894;49.700;10.770;2023-02-14T08:58:39;1.40;99.90
7704;DHT22;3894;49.700;10.770;2023-02-14T09:01:15;1.30;99.90
7704;DHT22;3894;49.700;10.770;2023-02-14T09:03:42;1.30;99.90
7704;DHT22;3894;49.700;10.770;2023-02-14T09:06:10;1.40;99.90
7704;DHT22;3894;49.700;10.770;2023-02-14T09:08:37;1.40;99.90
7704;DHT22;3894;49.700;10.770;2023-02-14T09:13:33;1.40;99.90
7704;DHT22;3894;49.700;10.770;2023-02-14T09:16:21;1.40;99.90
7704;DHT22;3894;49.700;10.770;2023-02-14T09:18:48;1.40;99.90
7704;DHT22;3894;49.700;10.770;2023-02-14T09:21:23;1.40;99.90
7704;DHT22;3894;49.700;10.770;2023-02-14T09:23:49;1.50;99.90
7704;DHT22;3894;49.700;10.770;2023-02-14T09:26:16;1.50;99.90
7704;DHT22;3894;49.700;10.770;2023-02-14T09:28:48;1.50;99.90
7704;DHT22;3894;49.700;10.770;2023-02-14T09:31:24;1.50;99.90
7704;DHT22;3894;49.700;10.770;2023-02-14T09:33:51;1.60;99.90
7704;DHT22;3894;49.700;10.770;2023-02-14T09:36:16;1.60;99.90
7704;DHT22;3894;49.700;10.770;2023-02-14T09:39:01;1.60;99.90
7704;DHT22;3894;49.700;10.770;2023-02-14T09:43:59;1.60;99.90
7704;DHT22;3894;49.700;10.770;2023-02-14T09:46:29;1.60;99.90
7704;DHT22;3894;49.700;10.770;2023-02-14T09:48:57;1.70;99.90
7704;DHT22;3894;49.700;10.770;2023-02-14T09:51:26;1.70;99.90
7704;DHT22;3894;49.700;10.770;2023-02-14T09:54:00;1.70;99.90
7704;DHT22;3894;49.700;10.770;2023-02-14T10:09:51;1.80;99.90
7704;DHT22;3894;49.700;10.770;2023-02-14T10:12:26;1.80;99.90
7704;DHT22;3894;49.700;10.770;2023-02-14T10:14:56;1.80;99.90
7704;DHT22;3894;49.700;10.770;2023-02-14T10:17:28;1.90;99.90
7704;DHT22;3894;49.700;10.770;2023-02-14T10:20:02;1.90;99.90
7704;DHT22;3894;49.700;10.770;2023-02-14T10:22:40;1.90;99.90
7704;DHT22;3894;49.700;10.770;2023-02-14T10:25:28;1.90;99.90
7704;DHT22;3894;49.700;10.770;2023-02-14T10:27:57;2.00;99.90
7704;DHT22;3894;49.700;10.770;2023-02-14T10:30:23;1.90;99.90
7704;DHT22;3894;49.700;10.770;2023-02-14T10:39:07;2.00;99.90
7704;DHT22;3894;49.700;10.770;2023-02-14T10:41:19;2.00;99.90
7704;DHT22;3894;49.700;10.770;2023-02-14T10:47:00;2.00;99.90
7704;DHT22;3894;49.700;10.770;2023-02-14T10:49:47;2.00;99.90
7704;DHT22;3894;49.700;10.770;2023-02-14T10:52:22;2.00;99.90
7704;DHT22;3894;49.700;10.770;2023-02-14T10:54:55;2.00;99.90
7704;DHT22;3894;49.700;10.770;2023-02-14T10:57:31;2.10;99.90
7704;DHT22;3894;49.700;10.770;2023-02-14T11:00:01;2.10;99.90
7704;DHT22;3894;49.700;10.770;2023-02-14T11:02:38;2.10;99.90
7704;DHT22;3894;49.700;10.770;2023-02-14T11:05:07;2.10;99.90
7704;DHT22;3894;49.700;10.770;2023-02-14T11:07:33;2.10;99.90
7704;DHT22;3894;49.700;10.770;2023-02-14T11:09:58;2.10;99.90
7704;DHT22;3894;49.700;10.770;2023-02-14T11:12:38;2.10;99.90
7704;DHT22;3894;49.700;10.770;2023-02-14T11:17:44;2.20;99.90
7704;DHT22;3894;49.700;10.770;2023-02-14T11:22:48;2.20;99.90
7704;DHT22;3894;49.700;10.770;2023-02-14T11:25:28;2.20;99.90
7704;DHT22;3894;49.700;10.770;2023-02-14T11:28:04;2.20;99.90
7704;DHT22;3894;49.700;10.770;2023-02-14T11:30:42;2.30;99.90
7704;DHT22;3894;49.700;10.770;2023-02-14T11:33:12;2.30;99.90
7704;DHT22;3894;49.700;10.770;2023-02-14T11:35:50;2.30;99.90
7704;DHT22;3894;49.700;10.770;2023-02-14T11:38:33;2.30;99.90
7704;DHT22;3894;49.700;10.770;2023-02-14T11:41:01;2.30;99.90
7704;DHT22;3894;49.700;10.770;2023-02-14T11:43:40;2.30;99.90
7704;DHT22;3894;49.700;10.770;2023-02-14T11:46:10;2.30;99.90
7704;DHT22;3894;49.700;10.770;2023-02-14T11:48:37;2.30;99.90
7704;DHT22;3894;49.700;10.770;2023-02-14T11:51:10;2.30;99.90
7704;DHT22;3894;49.700;10.770;2023-02-14T11:53:50;2.40;99.90
7704;DHT22;3894;49.700;10.770;2023-02-14T11:56:19;2.30;99.90
7704;DHT22;3894;49.700;10.770;2023-02-14T11:59:00;2.40;99.90
7704;DHT22;3894;49.700;10.770;2023-02-14T12:01:33;2.40;99.90
7704;DHT22;3894;49.700;10.770;2023-02-14T12:04:24;2.30;99.90
7704;DHT22;3894;49.700;10.770;2023-02-14T12:07:17;2.30;99.90
7704;DHT22;3894;49.700;10.770;2023-02-14T12:09:45;2.40;99.90
7704;DHT22;3894;49.700;10.770;2023-02-14T12:12:18;2.50;99.90
7704;DHT22;3894;49.700;10.770;2023-02-14T12:14:46;2.50;99.90
7704;DHT22;3894;49.700;10.770;2023-02-14T12:17:17;2.50;99.90
7704;DHT22;3894;49.700;10.770;2023-02-14T12:22:20;2.60;99.90
7704;DHT22;3894;49.700;10.770;2023-02-14T12:25:13;2.60;99.90
7704;DHT22;3894;49.700;10.770;2023-02-14T12:28:03;2.50;99.90
7704;DHT22;3894;49.700;10.770;2023-02-14T12:30:32;2.50;99.90
7704;DHT22;3894;49.700;10.770;2023-02-14T12:32:58;2.60;99.90
7704;DHT22;3894;49.700;10.770;2023-02-14T12:38:48;2.70;99.90
7704;DHT22;3894;49.700;10.770;2023-02-14T12:44:21;2.70;99.90
7704;DHT22;3894;49.700;10.770;2023-02-14T12:58:23;2.80;99.90
7704;DHT22;3894;49.700;10.770;2023-02-14T13:06:39;2.90;99.90
7704;DHT22;3894;49.700;10.770;2023-02-14T13:14:50;2.90;99.90
7704;DHT22;3894;49.700;10.770;2023-02-14T13:17:29;3.00;99.90
7704;DHT22;3894;49.700;10.770;2023-02-14T13:20:25;3.00;99.90
7704;DHT22;3894;49.700;10.770;2023-02-14T13:22:59;3.00;99.90
7704;DHT22;3894;49.700;10.770;2023-02-14T13:25:29;3.00;99.90
7704;DHT22;3894;49.700;10.770;2023-02-14T13:28:03;2.90;99.90
7704;DHT22;3894;49.700;10.770;2023-02-14T13:30:34;2.90;99.90
7704;DHT22;3894;49.700;10.770;2023-02-14T13:33:23;2.90;99.90
7704;DHT22;3894;49.700;10.770;2023-02-14T13:35:50;2.90;99.90
7704;DHT22;3894;49.700;10.770;2023-02-14T13:38:17;2.90;99.90
7704;DHT22;3894;49.700;10.770;2023-02-14T13:40:44;2.90;99.90
7704;DHT22;3894;49.700;10.770;2023-02-14T13:43:10;2.90;99.90
7704;DHT22;3894;49.700;10.770;2023-02-14T13:50:39;2.80;99.90
7704;DHT22;3894;49.700;10.770;2023-02-14T13:53:11;2.80;99.90
7704;DHT22;3894;49.700;10.770;2023-02-14T13:55:45;2.90;99.90
7704;DHT22;3894;49.700;10.770;2023-02-14T13:58:17;2.80;99.90
7704;DHT22;3894;49.700;10.770;2023-02-14T14:00:50;2.90;99.90
7704;DHT22;3894;49.700;10.770;2023-02-14T14:06:06;2.90;99.90
7704;DHT22;3894;49.700;10.770;2023-02-14T14:08:42;2.90;99.90
7704;DHT22;3894;49.700;10.770;2023-02-14T14:14:09;2.80;99.90
7704;DHT22;3894;49.700;10.770;2023-02-14T14:16:58;2.80;99.90
7704;DHT22;3894;49.700;10.770;2023-02-14T14:22:02;2.80;99.90
7704;DHT22;3894;49.700;10.770;2023-02-14T14:24:29;2.80;99.90
7704;DHT22;3894;49.700;10.770;2023-02-14T14:27:16;2.80;99.90
7704;DHT22;3894;49.700;10.770;2023-02-14T14:29:57;2.80;99.90
7704;DHT22;3894;49.700;10.770;2023-02-14T14:32:36;2.80;99.90
7704;DHT22;3894;49.700;10.770;2023-02-14T14:37:34;2.80;99.90
7704;DHT22;3894;49.700;10.770;2023-02-14T14:40:03;2.80;99.90
7704;DHT22;3894;49.700;10.770;2023-02-14T14:42:36;2.80;99.90
7704;DHT22;3894;49.700;10.770;2023-02-14T14:45:07;2.80;99.90
7704;DHT22;3894;49.700;10.770;2023-02-14T14:47:39;2.80;99.90
7704;DHT22;3894;49.700;10.770;2023-02-14T14:50:08;2.80;99.90
7704;DHT22;3894;49.700;10.770;2023-02-14T14:52:50;2.80;99.90
7704;DHT22;3894;49.700;10.770;2023-02-14T14:55:31;2.80;99.90
7704;DHT22;3894;49.700;10.770;2023-02-14T14:58:04;2.80;99.90
7704;DHT22;3894;49.700;10.770;2023-02-14T15:00:39;2.90;99.90
7704;DHT22;3894;49.700;10.770;2023-02-14T15:03:15;2.80;99.90
7704;DHT22;3894;49.700;10.770;2023-02-14T15:05:47;2.80;99.90
7704;DHT22;3894;49.700;10.770;2023-02-14T15:10:39;2.70;99.90
7704;DHT22;3894;49.700;10.770;2023-02-14T15:13:07;2.70;99.90
7704;DHT22;3894;49.700;10.770;2023-02-14T15:15:53;2.70;99.90
7704;DHT22;3894;49.700;10.770;2023-02-14T15:18:20;2.70;99.90
7704;DHT22;3894;49.700;10.770;2023-02-14T15:20:50;2.70;99.90
7704;DHT22;3894;49.700;10.770;2023-02-14T15:23:23;2.70;99.90
7704;DHT22;3894;49.700;10.770;2023-02-14T15:25:49;2.70;99.90
7704;DHT22;3894;49.700;10.770;2023-02-14T15:28:33;2.70;99.90
7704;DHT22;3894;49.700;10.770;2023-02-14T15:31:04;2.70;99.90
7704;DHT22;3894;49.700;10.770;2023-02-14T15:33:31;2.70;99.90
7704;DHT22;3894;49.700;10.770;2023-02-14T15:36:03;2.70;99.90
7704;DHT22;3894;49.700;10.770;2023-02-14T15:38:30;2.70;99.90
7704;DHT22;3894;49.700;10.770;2023-02-14T15:40:57;2.60;99.90
7704;DHT22;3894;49.700;10.770;2023-02-14T15:43:36;2.60;99.90
7704;DHT22;3894;49.700;10.770;2023-02-14T15:48:56;2.60;99.90
7704;DHT22;3894;49.700;10.770;2023-02-14T15:51:33;2.60;99.90
7704;DHT22;3894;49.700;10.770;2023-02-14T15:54:22;2.50;99.90
7704;DHT22;3894;49.700;10.770;2023-02-14T15:56:52;2.50;99.90
7704;DHT22;3894;49.700;10.770;2023-02-14T15:59:26;2.50;99.90
7704;DHT22;3894;49.700;10.770;2023-02-14T16:02:02;2.50;99.90
7704;DHT22;3894;49.700;10.770;2023-02-14T16:04:33;2.50;99.90
7704;DHT22;3894;49.700;10.770;2023-02-14T16:07:04;2.50;99.90
7704;DHT22;3894;49.700;10.770;2023-02-14T16:09:31;2.50;99.90
7704;DHT22;3894;49.700;10.770;2023-02-14T16:15:18;2.50;99.90
7704;DHT22;3894;49.700;10.770;2023-02-14T16:17:50;2.40;99.90
7704;DHT22;3894;49.700;10.770;2023-02-14T16:20:36;2.40;99.90
7704;DHT22;3894;49.700;10.770;2023-02-14T16:23:17;2.40;99.90
7704;DHT22;3894;49.700;10.770;2023-02-14T16:25:44;2.30;99.90
7704;DHT22;3894;49.700;10.770;2023-02-14T16:28:11;2.30;99.90
7704;DHT22;3894;49.700;10.770;2023-02-14T16:30:41;2.30;99.90
7704;DHT22;3894;49.700;10.770;2023-02-14T16:33:17;2.30;99.90
7704;DHT22;3894;49.700;10.770;2023-02-14T16:35:46;2.30;99.90
7704;DHT22;3894;49.700;10.770;2023-02-14T16:38:16;2.30;99.90
7704;DHT22;3894;49.700;10.770;2023-02-14T16:40:46;2.30;99.90
7704;DHT22;3894;49.700;10.770;2023-02-14T16:43:16;2.30;99.90
7704;DHT22;3894;49.700;10.770;2023-02-14T16:45:45;2.30;99.90
7704;DHT22;3894;49.700;10.770;2023-02-14T16:48:12;2.30;99.90
7704;DHT22;3894;49.700;10.770;2023-02-14T16:50:41;2.30;99.90
7704;DHT22;3894;49.700;10.770;2023-02-14T16:53:16;2.30;99.90
7704;DHT22;3894;49.700;10.770;2023-02-14T16:55:47;2.20;99.90
7704;DHT22;3894;49.700;10.770;2023-02-14T16:58:25;2.20;99.90
7704;DHT22;3894;49.700;10.770;2023-02-14T17:00:52;2.20;99.90
7704;DHT22;3894;49.700;10.770;2023-02-14T17:03:18;2.20;99.90
7704;DHT22;3894;49.700;10.770;2023-02-14T17:05:47;2.20;99.90
7704;DHT22;3894;49.700;10.770;2023-02-14T17:08:19;2.20;99.90
7704;DHT22;3894;49.700;10.770;2023-02-14T17:10:49;2.20;99.90
7704;DHT22;3894;49.700;10.770;2023-02-14T17:13:20;2.10;99.90
7704;DHT22;3894;49.700;10.770;2023-02-14T17:15:47;2.20;99.90
7704;DHT22;3894;49.700;10.770;2023-02-14T17:18:17;2.20;99.90
7704;DHT22;3894;49.700;10.770;2023-02-14T17:20:47;2.10;99.90
7704;DHT22;3894;49.700;10.770;2023-02-14T17:23:18;2.10;99.90
7704;DHT22;3894;49.700;10.770;2023-02-14T17:25:45;2.10;99.90
7704;DHT22;3894;49.700;10.770;2023-02-14T17:28:11;2.10;99.90
7704;DHT22;3894;49.700;10.770;2023-02-14T17:30:36;2.10;99.90
7704;DHT22;3894;49.700;10.770;2023-02-14T17:33:02;2.10;99.90
7704;DHT22;3894;49.700;10.770;2023-02-14T17:35:28;2.10;99.90
7704;DHT22;3894;49.700;10.770;2023-02-14T17:37:55;2.10;99.90
7704;DHT22;3894;49.700;10.770;2023-02-14T17:40:21;2.10;99.90
7704;DHT22;3894;49.700;10.770;2023-02-14T17:42:46;2.10;99.90
7704;DHT22;3894;49.700;10.770;2023-02-14T17:45:12;2.10;99.90
7704;DHT22;3894;49.700;10.770;2023-02-14T17:47:39;2.10;99.90
7704;DHT22;3894;49.700;10.770;2023-02-14T17:50:07;2.10;99.90
7704;DHT22;3894;49.700;10.770;2023-02-14T17:52:36;2.10;99.90
7704;DHT22;3894;49.700;10.770;2023-02-14T17:55:02;2.10;99.90
7704;DHT22;3894;49.700;10.770;2023-02-14T17:57:28;2.10;99.90
7704;DHT22;3894;49.700;10.770;2023-02-14T17:59:54;2.10;99.90
7704;DHT22;3894;49.700;10.770;2023-02-14T18:02:19;2.10;99.90
7704;DHT22;3894;49.700;10.770;2023-02-14T18:04:48;2.10;99.90
7704;DHT22;3894;49.700;10.770;2023-02-14T18:07:14;2.10;99.90
7704;DHT22;3894;49.700;10.770;2023-02-14T18:09:41;2.00;99.90
7704;DHT22;3894;49.700;10.770;2023-02-14T18:12:07;2.00;99.90
7704;DHT22;3894;49.700;10.770;2023-02-14T18:14:34;2.00;99.90
7704;DHT22;3894;49.700;10.770;2023-02-14T18:17:00;2.00;99.90
7704;DHT22;3894;49.700;10.770;2023-02-14T18:19:26;2.00;99.90
7704;DHT22;3894;49.700;10.770;2023-02-14T18:21:52;2.00;99.90
7704;DHT22;3894;49.700;10.770;2023-02-14T18:24:18;2.00;99.90
7704;DHT22;3894;49.700;10.770;2023-02-14T18:26:44;2.00;99.90
7704;DHT22;3894;49.700;10.770;2023-02-14T18:29:10;2.00;99.90
7704;DHT22;3894;49.700;10.770;2023-02-14T18:31:38;2.00;99.90
7704;DHT22;3894;49.700;10.770;2023-02-14T18:34:05;2.00;99.90
7704;DHT22;3894;49.700;10.770;2023-02-14T18:36:32;2.00;99.90
7704;DHT22;3894;49.700;10.770;2023-02-14T18:38:59;2.00;99.90
7704;DHT22;3894;49.700;10.770;2023-02-14T18:41:25;2.00;99.90
7704;DHT22;3894;49.700;10.770;2023-02-14T18:43:52;2.00;99.90
7704;DHT22;3894;49.700;10.770;2023-02-14T18:46:21;2.00;99.90
7704;DHT22;3894;49.700;10.770;2023-02-14T18:48:47;2.00;99.90
7704;DHT22;3894;49.700;10.770;2023-02-14T18:51:19;2.00;99.90
7704;DHT22;3894;49.700;10.770;2023-02-14T18:53:47;2.00;99.90
7704;DHT22;3894;49.700;10.770;2023-02-14T18:56:18;2.00;99.90
7704;DHT22;3894;49.700;10.770;2023-02-14T18:58:47;2.00;99.90
7704;DHT22;3894;49.700;10.770;2023-02-14T19:01:20;2.00;99.90
7704;DHT22;3894;49.700;10.770;2023-02-14T19:03:47;2.00;99.90
7704;DHT22;3894;49.700;10.770;2023-02-14T19:06:17;2.00;99.90
7704;DHT22;3894;49.700;10.770;2023-02-14T19:08:45;2.00;99.90
7704;DHT22;3894;49.700;10.770;2023-02-14T19:11:18;2.00;99.90
7704;DHT22;3894;49.700;10.770;2023-02-14T19:13:49;2.00;99.90
7704;DHT22;3894;49.700;10.770;2023-02-14T19:16:17;2.00;99.90
7704;DHT22;3894;49.700;10.770;2023-02-14T19:18:43;2.00;99.90
7704;DHT22;3894;49.700;10.770;2023-02-14T19:21:18;2.00;99.90
7704;DHT22;3894;49.700;10.770;2023-02-14T19:23:45;2.00;99.90
7704;DHT22;3894;49.700;10.770;2023-02-14T19:26:22;2.00;99.90
7704;DHT22;3894;49.700;10.770;2023-02-14T19:28:53;2.00;99.90
7704;DHT22;3894;49.700;10.770;2023-02-14T19:31:19;2.00;99.90
7704;DHT22;3894;49.700;10.770;2023-02-14T19:33:46;2.00;99.90
7704;DHT22;3894;49.700;10.770;2023-02-14T19:36:15;2.00;99.90
7704;DHT22;3894;49.700;10.770;2023-02-14T19:38:42;2.10;99.90
7704;DHT22;3894;49.700;10.770;2023-02-14T19:41:17;2.10;99.90
7704;DHT22;3894;49.700;10.770;2023-02-14T19:43:43;2.10;99.90
7704;DHT22;3894;49.700;10.770;2023-02-14T19:46:11;2.10;99.90
7704;DHT22;3894;49.700;10.770;2023-02-14T19:48:37;2.10;99.90
7704;DHT22;3894;49.700;10.770;2023-02-14T19:51:24;2.10;99.90
7704;DHT22;3894;49.700;10.770;2023-02-14T19:53:57;2.10;99.90
7704;DHT22;3894;49.700;10.770;2023-02-14T19:56:32;2.00;99.90
7704;DHT22;3894;49.700;10.770;2023-02-14T19:59:02;2.00;99.90
7704;DHT22;3894;49.700;10.770;2023-02-14T20:09:19;2.00;99.90
7704;DHT22;3894;49.700;10.770;2023-02-14T20:11:51;2.00;99.90
7704;DHT22;3894;49.700;10.770;2023-02-14T20:14:24;2.00;99.90
7704;DHT22;3894;49.700;10.770;2023-02-14T20:16:52;2.00;99.90
7704;DHT22;3894;49.700;10.770;2023-02-14T20:19:20;2.00;99.90
7704;DHT22;3894;49.700;10.770;2023-02-14T20:21:47;1.90;99.90
7704;DHT22;3894;49.700;10.770;2023-02-14T20:24:16;1.90;99.90
7704;DHT22;3894;49.700;10.770;2023-02-14T20:26:45;1.90;99.90
7704;DHT22;3894;49.700;10.770;2023-02-14T20:29:12;1.90;99.90
7704;DHT22;3894;49.700;10.770;2023-02-14T20:31:41;1.80;99.90
7704;DHT22;3894;49.700;10.770;2023-02-14T20:34:08;1.80;99.90
7704;DHT22;3894;49.700;10.770;2023-02-14T20:36:33;1.80;99.90
7704;DHT22;3894;49.700;10.770;2023-02-14T20:39:01;1.80;99.90
7704;DHT22;3894;49.700;10.770;2023-02-14T20:41:27;1.80;99.90
7704;DHT22;3894;49.700;10.770;2023-02-14T20:43:54;1.70;99.90
7704;DHT22;3894;49.700;10.770;2023-02-14T20:46:21;1.70;99.90
7704;DHT22;3894;49.700;10.770;2023-02-14T20:48:47;1.70;99.90
7704;DHT22;3894;49.700;10.770;2023-02-14T20:51:17;1.70;99.90
7704;DHT22;3894;49.700;10.770;2023-02-14T20:53:46;1.70;99.90
7704;DHT22;3894;49.700;10.770;2023-02-14T20:56:13;1.70;99.90
7704;DHT22;3894;49.700;10.770;2023-02-14T20:58:39;1.60;99.90
7704;DHT22;3894;49.700;10.770;2023-02-14T21:01:17;1.60;99.90
7704;DHT22;3894;49.700;10.770;2023-02-14T21:03:45;1.60;99.90
7704;DHT22;3894;49.700;10.770;2023-02-14T21:06:12;1.60;99.90
7704;DHT22;3894;49.700;10.770;2023-02-14T21:08:39;1.60;99.90
7704;DHT22;3894;49.700;10.770;2023-02-14T21:11:06;1.50;99.90
7704;DHT22;3894;49.700;10.770;2023-02-14T21:13:32;1.50;99.90
7704;DHT22;3894;49.700;10.770;2023-02-14T21:16:02;1.50;99.90
7704;DHT22;3894;49.700;10.770;2023-02-14T21:18:28;1.50;99.90
7704;DHT22;3894;49.700;10.770;2023-02-14T21:21:06;1.50;99.90
7704;DHT22;3894;49.700;10.770;2023-02-14T21:23:34;1.50;99.90
7704;DHT22;3894;49.700;10.770;2023-02-14T21:26:00;1.50;99.90
7704;DHT22;3894;49.700;10.770;2023-02-14T21:28:26;1.50;99.90
7704;DHT22;3894;49.700;10.770;2023-02-14T21:31:06;1.50;99.90
7704;DHT22;3894;49.700;10.770;2023-02-14T21:33:35;1.50;99.90
7704;DHT22;3894;49.700;10.770;2023-02-14T21:38:34;1.40;99.90
7704;DHT22;3894;49.700;10.770;2023-02-14T21:41:05;1.40;99.90
7704;DHT22;3894;49.700;10.770;2023-02-14T21:43:40;1.40;99.90
7704;DHT22;3894;49.700;10.770;2023-02-14T21:46:10;1.40;99.90
7704;DHT22;3894;49.700;10.770;2023-02-14T21:48:40;1.40;99.90
7704;DHT22;3894;49.700;10.770;2023-02-14T21:51:24;1.40;99.90
7704;DHT22;3894;49.700;10.770;2023-02-14T21:53:52;1.40;99.90
7704;DHT22;3894;49.700;10.770;2023-02-14T21:56:27;1.40;99.90
7704;DHT22;3894;49.700;10.770;2023-02-14T21:58:56;1.40;99.90
7704;DHT22;3894;49.700;10.770;2023-02-14T22:01:27;1.40;99.90
7704;DHT22;3894;49.700;10.770;2023-02-14T22:03:54;1.40;99.90
7704;DHT22;3894;49.700;10.770;2023-02-14T22:06:34;1.40;99.90
7704;DHT22;3894;49.700;10.770;2023-02-14T22:09:01;1.30;99.90
7704;DHT22;3894;49.700;10.770;2023-02-14T22:11:28;1.30;99.90
7704;DHT22;3894;49.700;10.770;2023-02-14T22:13:54;1.30;99.90
7704;DHT22;3894;49.700;10.770;2023-02-14T22:16:22;1.20;99.90
7704;DHT22;3894;49.700;10.770;2023-02-14T22:18:48;1.20;99.90
7704;DHT22;3894;49.700;10.770;2023-02-14T22:21:16;1.20;99.90
7704;DHT22;3894;49.700;10.770;2023-02-14T22:23:43;1.20;99.90
7704;DHT22;3894;49.700;10.770;2023-02-14T22:28:39;1.10;99.90
7704;DHT22;3894;49.700;10.770;2023-02-14T22:31:05;1.10;99.90
7704;DHT22;3894;49.700;10.770;2023-02-14T22:33:36;1.10;99.90
7704;DHT22;3894;49.700;10.770;2023-02-14T22:36:03;1.10;99.90
7704;DHT22;3894;49.700;10.770;2023-02-14T22:38:28;1.10;99.90